sensor_id;sensor_type;location;lat;lon;timestamp;P1;durP1;ratioP1;P2;durP2;ratioP2
50853;SDS011;44154;45.506;-122.806;2022-12-07T00:01:39;15.70;;;14.30;;
50853;SDS011;44154;45.506;-122.806;2022-12-07T00:04:08;17.23;;;15.52;;
50853;SDS011;44154;45.506;-122.806;2022-12-07T00:06:38;17.58;;;15.98;;
50853;SDS011;44154;45.506;-122.806;2022-12-07T00:09:07;17.52;;;16.02;;
50853;SDS011;44154;45.506;-122.806;2022-12-07T00:11:36;18.23;;;16.70;;
50853;SDS011;44154;45.506;-122.806;2022-12-07T00:14:03;17.63;;;15.75;;
50853;SDS011;44154;45.506;-122.806;2022-12-07T00:16:32;16.27;;;14.88;;
50853;SDS011;44154;45.506;-122.806;2022-12-07T00:18:59;17.13;;;15.45;;
50853;SDS011;44154;45.506;-122.806;2022-12-07T00:21:27;14.32;;;13.02;;
50853;SDS011;44154;45.506;-122.806;2022-12-07T00:23:55;17.17;;;15.68;;
50853;SDS011;44154;45.506;-122.806;2022-12-07T00:26:26;15.00;;;13.70;;
50853;SDS011;44154;45.506;-122.806;2022-12-07T00:29:01;13.20;;;12.10;;
50853;SDS011;44154;45.506;-122.806;2022-12-07T00:31:30;11.95;;;10.85;;
50853;SDS011;44154;45.506;-122.806;2022-12-07T00:34:00;11.88;;;10.68;;
50853;SDS011;44154;45.506;-122.806;2022-12-07T00:36:26;12.60;;;11.23;;
50853;SDS011;44154;45.506;-122.806;2022-12-07T00:38:53;12.65;;;10.95;;
50853;SDS011;44154;45.506;-122.806;2022-12-07T00:41:21;11.93;;;10.73;;
50853;SDS011;44154;45.506;-122.806;2022-12-07T00:43:50;11.73;;;10.52;;
50853;SDS011;44154;45.506;-122.806;2022-12-07T00:46:17;12.13;;;10.82;;
50853;SDS011;44154;45.506;-122.806;2022-12-07T00:48:44;12.35;;;10.57;;
50853;SDS011;44154;45.506;-122.806;2022-12-07T00:51:12;11.73;;;10.55;;
50853;SDS011;44154;45.506;-122.806;2022-12-07T00:53:39;15.20;;;11.38;;
50853;SDS011;44154;45.506;-122.806;2022-12-07T00:56:16;14.13;;;12.82;;
50853;SDS011;44154;45.506;-122.806;2022-12-07T00:58:49;13.07;;;11.70;;
50853;SDS011;44154;45.506;-122.806;2022-12-07T01:01:19;10.65;;;9.68;;
50853;SDS011;44154;45.506;-122.806;2022-12-07T01:03:45;10.00;;;9.00;;
50853;SDS011;44154;45.506;-122.806;2022-12-07T01:06:15;9.70;;;8.63;;
50853;SDS011;44154;45.506;-122.806;2022-12-07T01:08:43;9.98;;;8.23;;
50853;SDS011;44154;45.506;-122.806;2022-12-07T01:11:11;9.63;;;8.63;;
50853;SDS011;44154;45.506;-122.806;2022-12-07T01:13:39;14.18;;;10.07;;
50853;SDS011;44154;45.506;-122.806;2022-12-07T01:16:06;14.55;;;9.10;;
50853;SDS011;44154;45.506;-122.806;2022-12-07T01:18:34;11.43;;;9.07;;
50853;SDS011;44154;45.506;-122.806;2022-12-07T01:21:03;11.02;;;8.88;;
50853;SDS011;44154;45.506;-122.806;2022-12-07T01:23:31;10.38;;;9.10;;
50853;SDS011;44154;45.506;-122.806;2022-12-07T01:25:59;15.65;;;10.18;;
50853;SDS011;44154;45.506;-122.806;2022-12-07T01:28:27;10.15;;;9.00;;
50853;SDS011;44154;45.506;-122.806;2022-12-07T01:30:55;12.90;;;9.60;;
50853;SDS011;44154;45.506;-122.806;2022-12-07T01:33:29;13.32;;;9.38;;
50853;SDS011;44154;45.506;-122.806;2022-12-07T01:36:01;12.40;;;9.30;;
50853;SDS011;44154;45.506;-122.806;2022-12-07T01:38:47;14.38;;;12.93;;
50853;SDS011;44154;45.506;-122.806;2022-12-07T01:41:17;13.13;;;11.10;;
50853;SDS011;44154;45.506;-122.806;2022-12-07T01:46:32;9.60;;;7.25;;
50853;SDS011;44154;45.506;-122.806;2022-12-07T01:48:59;9.88;;;7.60;;
50853;SDS011;44154;45.506;-122.806;2022-12-07T01:51:26;11.23;;;9.18;;
50853;SDS011;44154;45.506;-122.806;2022-12-07T01:53:53;10.82;;;9.23;;
50853;SDS011;44154;45.506;-122.806;2022-12-07T01:56:20;9.18;;;8.20;;
50853;SDS011;44154;45.506;-122.806;2022-12-07T01:58:51;9.68;;;7.75;;
50853;SDS011;44154;45.506;-122.806;2022-12-07T02:01:20;12.68;;;8.60;;
50853;SDS011;44154;45.506;-122.806;2022-12-07T02:03:47;11.65;;;7.80;;
50853;SDS011;44154;45.506;-122.806;2022-12-07T02:06:15;11.98;;;8.45;;
50853;SDS011;44154;45.506;-122.806;2022-12-07T02:08:45;12.25;;;8.20;;
50853;SDS011;44154;45.506;-122.806;2022-12-07T02:11:12;10.10;;;8.32;;
50853;SDS011;44154;45.506;-122.806;2022-12-07T02:13:39;11.95;;;8.05;;
50853;SDS011;44154;45.506;-122.806;2022-12-07T02:19:22;9.40;;;7.72;;
50853;SDS011;44154;45.506;-122.806;2022-12-07T02:22:43;12.60;;;10.18;;
50853;SDS011;44154;45.506;-122.806;2022-12-07T02:31:08;8.02;;;7.00;;
50853;SDS011;44154;45.506;-122.806;2022-12-07T02:33:48;7.53;;;6.70;;
50853;SDS011;44154;45.506;-122.806;2022-12-07T02:36:21;11.18;;;7.40;;
50853;SDS011;44154;45.506;-122.806;2022-12-07T02:38:59;11.55;;;7.72;;
50853;SDS011;44154;45.506;-122.806;2022-12-07T02:41:36;7.95;;;7.00;;
50853;SDS011;44154;45.506;-122.806;2022-12-07T02:44:11;11.48;;;10.05;;
50853;SDS011;44154;45.506;-122.806;2022-12-07T02:46:43;10.80;;;9.68;;
50853;SDS011;44154;45.506;-122.806;2022-12-07T02:49:16;10.35;;;8.25;;
50853;SDS011;44154;45.506;-122.806;2022-12-07T02:51:43;10.13;;;8.43;;
50853;SDS011;44154;45.506;-122.806;2022-12-07T02:54:12;9.20;;;8.00;;
50853;SDS011;44154;45.506;-122.806;2022-12-07T03:02:22;8.50;;;7.63;;
50853;SDS011;44154;45.506;-122.806;2022-12-07T03:08:02;9.07;;;7.57;;
50853;SDS011;44154;45.506;-122.806;2022-12-07T03:18:45;11.52;;;10.18;;
50853;SDS011;44154;45.506;-122.806;2022-12-07T03:21:20;9.07;;;8.20;;
50853;SDS011;44154;45.506;-122.806;2022-12-07T03:23:50;12.25;;;8.93;;
50853;SDS011;44154;45.506;-122.806;2022-12-07T03:26:21;8.93;;;8.02;;
50853;SDS011;44154;45.506;-122.806;2022-12-07T03:28:54;8.85;;;7.88;;
50853;SDS011;44154;45.506;-122.806;2022-12-07T03:31:26;9.02;;;8.13;;
50853;SDS011;44154;45.506;-122.806;2022-12-07T03:34:07;10.35;;;8.63;;
50853;SDS011;44154;45.506;-122.806;2022-12-07T03:36:47;10.02;;;7.93;;
50853;SDS011;44154;45.506;-122.806;2022-12-07T03:42:25;11.43;;;8.68;;
50853;SDS011;44154;45.506;-122.806;2022-12-07T03:44:51;9.00;;;8.13;;
50853;SDS011;44154;45.506;-122.806;2022-12-07T03:53:09;9.52;;;8.25;;
50853;SDS011;44154;45.506;-122.806;2022-12-07T03:55:42;9.23;;;8.25;;
50853;SDS011;44154;45.506;-122.806;2022-12-07T03:58:11;9.73;;;8.60;;
50853;SDS011;44154;45.506;-122.806;2022-12-07T04:00:41;8.82;;;7.93;;
50853;SDS011;44154;45.506;-122.806;2022-12-07T04:03:08;9.32;;;7.90;;
50853;SDS011;44154;45.506;-122.806;2022-12-07T04:05:34;8.70;;;7.55;;
50853;SDS011;44154;45.506;-122.806;2022-12-07T04:08:00;8.40;;;7.47;;
50853;SDS011;44154;45.506;-122.806;2022-12-07T04:10:27;10.50;;;8.23;;
50853;SDS011;44154;45.506;-122.806;2022-12-07T04:12:53;10.30;;;7.57;;
50853;SDS011;44154;45.506;-122.806;2022-12-07T04:15:19;9.93;;;8.00;;
50853;SDS011;44154;45.506;-122.806;2022-12-07T04:17:45;11.77;;;10.20;;
50853;SDS011;44154;45.506;-122.806;2022-12-07T04:20:11;10.05;;;9.05;;
50853;SDS011;44154;45.506;-122.806;2022-12-07T04:22:38;11.55;;;7.18;;
50853;SDS011;44154;45.506;-122.806;2022-12-07T04:25:04;9.45;;;6.72;;
50853;SDS011;44154;45.506;-122.806;2022-12-07T04:27:31;8.57;;;7.28;;
50853;SDS011;44154;45.506;-122.806;2022-12-07T04:29:57;10.35;;;7.43;;
50853;SDS011;44154;45.506;-122.806;2022-12-07T04:32:23;8.38;;;6.88;;
50853;SDS011;44154;45.506;-122.806;2022-12-07T04:34:49;10.65;;;7.53;;
50853;SDS011;44154;45.506;-122.806;2022-12-07T04:37:16;9.27;;;7.10;;
50853;SDS011;44154;45.506;-122.806;2022-12-07T04:39:42;12.40;;;7.68;;
50853;SDS011;44154;45.506;-122.806;2022-12-07T04:42:10;9.30;;;7.13;;
50853;SDS011;44154;45.506;-122.806;2022-12-07T04:44:37;8.88;;;6.93;;
50853;SDS011;44154;45.506;-122.806;2022-12-07T04:47:04;7.72;;;6.13;;
50853;SDS011;44154;45.506;-122.806;2022-12-07T04:49:30;8.85;;;7.00;;
50853;SDS011;44154;45.506;-122.806;2022-12-07T04:51:56;8.57;;;6.75;;
50853;SDS011;44154;45.506;-122.806;2022-12-07T04:54:22;9.27;;;6.95;;
50853;SDS011;44154;45.506;-122.806;2022-12-07T04:56:49;7.50;;;6.60;;
50853;SDS011;44154;45.506;-122.806;2022-12-07T04:59:15;9.35;;;6.88;;
50853;SDS011;44154;45.506;-122.806;2022-12-07T05:01:42;7.50;;;6.43;;
50853;SDS011;44154;45.506;-122.806;2022-12-07T05:04:09;8.70;;;7.32;;
50853;SDS011;44154;45.506;-122.806;2022-12-07T05:06:35;10.25;;;6.97;;
50853;SDS011;44154;45.506;-122.806;2022-12-07T05:09:02;9.25;;;6.85;;
50853;SDS011;44154;45.506;-122.806;2022-12-07T05:11:29;9.63;;;6.55;;
50853;SDS011;44154;45.506;-122.806;2022-12-07T05:14:06;12.50;;;11.30;;
50853;SDS011;44154;45.506;-122.806;2022-12-07T05:16:42;11.00;;;9.90;;
50853;SDS011;44154;45.506;-122.806;2022-12-07T05:19:09;8.73;;;7.93;;
50853;SDS011;44154;45.506;-122.806;2022-12-07T05:21:36;8.73;;;7.82;;
50853;SDS011;44154;45.506;-122.806;2022-12-07T05:24:03;9.13;;;7.85;;
50853;SDS011;44154;45.506;-122.806;2022-12-07T05:26:30;9.27;;;8.35;;
50853;SDS011;44154;45.506;-122.806;2022-12-07T05:28:57;9.10;;;7.88;;
50853;SDS011;44154;45.506;-122.806;2022-12-07T05:31:24;8.13;;;7.32;;
50853;SDS011;44154;45.506;-122.806;2022-12-07T05:33:51;8.00;;;7.20;;
50853;SDS011;44154;45.506;-122.806;2022-12-07T05:36:17;7.80;;;6.90;;
50853;SDS011;44154;45.506;-122.806;2022-12-07T05:38:43;8.13;;;7.18;;
50853;SDS011;44154;45.506;-122.806;2022-12-07T05:41:11;8.35;;;7.38;;
50853;SDS011;44154;45.506;-122.806;2022-12-07T05:43:58;7.82;;;7.03;;
50853;SDS011;44154;45.506;-122.806;2022-12-07T05:46:25;7.75;;;6.95;;
50853;SDS011;44154;45.506;-122.806;2022-12-07T05:48:51;9.80;;;7.82;;
50853;SDS011;44154;45.506;-122.806;2022-12-07T05:51:17;12.25;;;11.05;;
50853;SDS011;44154;45.506;-122.806;2022-12-07T05:53:44;10.07;;;9.10;;
50853;SDS011;44154;45.506;-122.806;2022-12-07T05:56:11;8.98;;;8.07;;
50853;SDS011;44154;45.506;-122.806;2022-12-07T05:58:37;8.70;;;7.82;;
50853;SDS011;44154;45.506;-122.806;2022-12-07T06:01:22;8.18;;;7.38;;
50853;SDS011;44154;45.506;-122.806;2022-12-07T06:03:48;9.15;;;7.88;;
50853;SDS011;44154;45.506;-122.806;2022-12-07T06:06:14;8.15;;;7.35;;
50853;SDS011;44154;45.506;-122.806;2022-12-07T06:08:40;7.70;;;7.00;;
50853;SDS011;44154;45.506;-122.806;2022-12-07T06:11:06;7.82;;;7.03;;
50853;SDS011;44154;45.506;-122.806;2022-12-07T06:13:51;8.38;;;7.05;;
50853;SDS011;44154;45.506;-122.806;2022-12-07T06:16:17;8.40;;;7.22;;
50853;SDS011;44154;45.506;-122.806;2022-12-07T06:18:43;7.57;;;6.78;;
50853;SDS011;44154;45.506;-122.806;2022-12-07T06:21:09;9.52;;;6.85;;
50853;SDS011;44154;45.506;-122.806;2022-12-07T06:23:35;11.50;;;10.30;;
50853;SDS011;44154;45.506;-122.806;2022-12-07T06:26:01;11.32;;;10.10;;
50853;SDS011;44154;45.506;-122.806;2022-12-07T06:28:28;9.30;;;8.23;;
50853;SDS011;44154;45.506;-122.806;2022-12-07T06:31:00;8.80;;;7.90;;
50853;SDS011;44154;45.506;-122.806;2022-12-07T06:33:27;8.38;;;7.57;;
50853;SDS011;44154;45.506;-122.806;2022-12-07T06:35:54;7.80;;;7.00;;
50853;SDS011;44154;45.506;-122.806;2022-12-07T06:38:20;7.75;;;7.00;;
50853;SDS011;44154;45.506;-122.806;2022-12-07T06:40:47;10.05;;;7.22;;
50853;SDS011;44154;45.506;-122.806;2022-12-07T06:43:13;8.43;;;7.57;;
50853;SDS011;44154;45.506;-122.806;2022-12-07T06:45:40;8.40;;;7.50;;
50853;SDS011;44154;45.506;-122.806;2022-12-07T06:48:07;8.57;;;7.47;;
50853;SDS011;44154;45.506;-122.806;2022-12-07T06:50:33;8.73;;;7.10;;
50853;SDS011;44154;45.506;-122.806;2022-12-07T06:52:59;8.15;;;6.78;;
50853;SDS011;44154;45.506;-122.806;2022-12-07T06:55:25;9.98;;;8.98;;
50853;SDS011;44154;45.506;-122.806;2022-12-07T06:57:51;10.65;;;9.63;;
50853;SDS011;44154;45.506;-122.806;2022-12-07T07:00:17;9.25;;;7.82;;
50853;SDS011;44154;45.506;-122.806;2022-12-07T07:02:43;9.68;;;8.10;;
50853;SDS011;44154;45.506;-122.806;2022-12-07T07:05:09;8.60;;;7.43;;
50853;SDS011;44154;45.506;-122.806;2022-12-07T07:07:35;8.27;;;7.43;;
50853;SDS011;44154;45.506;-122.806;2022-12-07T07:10:02;9.23;;;7.15;;
50853;SDS011;44154;45.506;-122.806;2022-12-07T07:12:28;8.25;;;6.80;;
50853;SDS011;44154;45.506;-122.806;2022-12-07T07:14:54;7.43;;;6.72;;
50853;SDS011;44154;45.506;-122.806;2022-12-07T07:17:20;7.90;;;6.68;;
50853;SDS011;44154;45.506;-122.806;2022-12-07T07:19:46;8.23;;;7.43;;
50853;SDS011;44154;45.506;-122.806;2022-12-07T07:22:12;10.60;;;9.13;;
50853;SDS011;44154;45.506;-122.806;2022-12-07T07:24:38;9.82;;;8.90;;
50853;SDS011;44154;45.506;-122.806;2022-12-07T07:27:05;9.63;;;8.63;;
50853;SDS011;44154;45.506;-122.806;2022-12-07T07:29:31;9.25;;;8.23;;
50853;SDS011;44154;45.506;-122.806;2022-12-07T07:31:57;7.47;;;6.70;;
50853;SDS011;44154;45.506;-122.806;2022-12-07T07:34:23;7.55;;;6.70;;
50853;SDS011;44154;45.506;-122.806;2022-12-07T07:36:49;6.88;;;6.18;;
50853;SDS011;44154;45.506;-122.806;2022-12-07T07:39:15;6.65;;;5.95;;
50853;SDS011;44154;45.506;-122.806;2022-12-07T07:41:41;7.57;;;6.10;;
50853;SDS011;44154;45.506;-122.806;2022-12-07T07:44:08;6.57;;;5.85;;
50853;SDS011;44154;45.506;-122.806;2022-12-07T07:46:35;8.15;;;6.30;;
50853;SDS011;44154;45.506;-122.806;2022-12-07T07:49:01;6.70;;;6.00;;
50853;SDS011;44154;45.506;-122.806;2022-12-07T07:51:27;7.32;;;6.20;;
50853;SDS011;44154;45.506;-122.806;2022-12-07T07:53:53;6.72;;;5.78;;
50853;SDS011;44154;45.506;-122.806;2022-12-07T07:56:20;7.07;;;6.00;;
50853;SDS011;44154;45.506;-122.806;2022-12-07T07:58:46;7.18;;;6.40;;
50853;SDS011;44154;45.506;-122.806;2022-12-07T08:01:12;6.75;;;6.05;;
50853;SDS011;44154;45.506;-122.806;2022-12-07T08:03:39;10.30;;;9.40;;
50853;SDS011;44154;45.506;-122.806;2022-12-07T08:06:05;9.75;;;8.77;;
50853;SDS011;44154;45.506;-122.806;2022-12-07T08:08:31;8.55;;;7.75;;
50853;SDS011;44154;45.506;-122.806;2022-12-07T08:10:58;7.00;;;6.30;;
50853;SDS011;44154;45.506;-122.806;2022-12-07T08:13:26;6.93;;;6.25;;
50853;SDS011;44154;45.506;-122.806;2022-12-07T08:15:53;6.78;;;6.07;;
50853;SDS011;44154;45.506;-122.806;2022-12-07T08:18:19;6.70;;;6.00;;
50853;SDS011;44154;45.506;-122.806;2022-12-07T08:20:45;6.70;;;6.00;;
50853;SDS011;44154;45.506;-122.806;2022-12-07T08:23:11;7.45;;;6.75;;
50853;SDS011;44154;45.506;-122.806;2022-12-07T08:25:38;6.95;;;6.25;;
50853;SDS011;44154;45.506;-122.806;2022-12-07T08:28:04;6.82;;;6.22;;
50853;SDS011;44154;45.506;-122.806;2022-12-07T08:30:31;6.13;;;5.53;;
50853;SDS011;44154;45.506;-122.806;2022-12-07T08:32:57;9.88;;;8.98;;
50853;SDS011;44154;45.506;-122.806;2022-12-07T08:35:24;10.80;;;9.82;;
50853;SDS011;44154;45.506;-122.806;2022-12-07T08:37:51;8.85;;;8.00;;
50853;SDS011;44154;45.506;-122.806;2022-12-07T08:40:17;8.50;;;7.60;;
50853;SDS011;44154;45.506;-122.806;2022-12-07T08:42:53;6.65;;;5.95;;
50853;SDS011;44154;45.506;-122.806;2022-12-07T08:45:20;5.93;;;5.43;;
50853;SDS011;44154;45.506;-122.806;2022-12-07T08:47:50;6.82;;;6.10;;
50853;SDS011;44154;45.506;-122.806;2022-12-07T08:50:27;6.25;;;5.65;;
50853;SDS011;44154;45.506;-122.806;2022-12-07T08:52:54;7.15;;;6.45;;
50853;SDS011;44154;45.506;-122.806;2022-12-07T08:55:23;7.35;;;6.65;;
50853;SDS011;44154;45.506;-122.806;2022-12-07T08:57:50;6.85;;;6.25;;
50853;SDS011;44154;45.506;-122.806;2022-12-07T09:00:17;6.50;;;5.90;;
50853;SDS011;44154;45.506;-122.806;2022-12-07T09:02:44;6.50;;;5.75;;
50853;SDS011;44154;45.506;-122.806;2022-12-07T09:05:11;9.77;;;8.88;;
50853;SDS011;44154;45.506;-122.806;2022-12-07T09:07:40;10.85;;;9.85;;
50853;SDS011;44154;45.506;-122.806;2022-12-07T09:10:08;8.98;;;8.15;;
50853;SDS011;44154;45.506;-122.806;2022-12-07T09:12:35;7.65;;;6.95;;
50853;SDS011;44154;45.506;-122.806;2022-12-07T09:15:01;6.80;;;6.20;;
50853;SDS011;44154;45.506;-122.806;2022-12-07T09:17:27;6.55;;;5.90;;
50853;SDS011;44154;45.506;-122.806;2022-12-07T09:19:58;6.22;;;5.63;;
50853;SDS011;44154;45.506;-122.806;2022-12-07T09:22:29;6.70;;;6.07;;
50853;SDS011;44154;45.506;-122.806;2022-12-07T09:24:57;6.90;;;6.18;;
50853;SDS011;44154;45.506;-122.806;2022-12-07T09:27:24;7.82;;;6.20;;
50853;SDS011;44154;45.506;-122.806;2022-12-07T09:29:50;6.97;;;6.28;;
50853;SDS011;44154;45.506;-122.806;2022-12-07T09:32:17;7.50;;;6.70;;
50853;SDS011;44154;45.506;-122.806;2022-12-07T09:34:43;7.53;;;6.75;;
50853;SDS011;44154;45.506;-122.806;2022-12-07T09:37:09;8.30;;;6.95;;
50853;SDS011;44154;45.506;-122.806;2022-12-07T09:39:39;11.40;;;9.57;;
50853;SDS011;44154;45.506;-122.806;2022-12-07T09:42:05;10.73;;;9.73;;
50853;SDS011;44154;45.506;-122.806;2022-12-07T09:44:33;9.20;;;8.32;;
50853;SDS011;44154;45.506;-122.806;2022-12-07T09:47:01;7.70;;;6.90;;
50853;SDS011;44154;45.506;-122.806;2022-12-07T09:49:28;7.80;;;6.07;;
50853;SDS011;44154;45.506;-122.806;2022-12-07T09:52:38;8.63;;;5.78;;
50853;SDS011;44154;45.506;-122.806;2022-12-07T09:54:51;8.75;;;6.45;;
50853;SDS011;44154;45.506;-122.806;2022-12-07T09:57:17;6.95;;;6.20;;
50853;SDS011;44154;45.506;-122.806;2022-12-07T09:59:54;7.03;;;6.30;;
50853;SDS011;44154;45.506;-122.806;2022-12-07T10:02:42;7.60;;;6.80;;
50853;SDS011;44154;45.506;-122.806;2022-12-07T10:05:18;7.68;;;6.80;;
50853;SDS011;44154;45.506;-122.806;2022-12-07T10:07:49;7.80;;;6.90;;
50853;SDS011;44154;45.506;-122.806;2022-12-07T10:10:17;8.38;;;7.10;;
50853;SDS011;44154;45.506;-122.806;2022-12-07T10:12:54;11.57;;;10.38;;
50853;SDS011;44154;45.506;-122.806;2022-12-07T10:15:21;10.63;;;9.52;;
50853;SDS011;44154;45.506;-122.806;2022-12-07T10:17:51;10.57;;;9.55;;
50853;SDS011;44154;45.506;-122.806;2022-12-07T10:20:24;6.75;;;6.05;;
50853;SDS011;44154;45.506;-122.806;2022-12-07T10:22:59;6.78;;;6.07;;
50853;SDS011;44154;45.506;-122.806;2022-12-07T10:25:29;7.50;;;6.70;;
50853;SDS011;44154;45.506;-122.806;2022-12-07T10:30:33;7.63;;;6.93;;
50853;SDS011;44154;45.506;-122.806;2022-12-07T10:33:29;7.70;;;6.90;;
50853;SDS011;44154;45.506;-122.806;2022-12-07T10:35:55;7.93;;;7.10;;
50853;SDS011;44154;45.506;-122.806;2022-12-07T10:38:22;7.40;;;6.60;;
50853;SDS011;44154;45.506;-122.806;2022-12-07T10:41:05;8.38;;;6.88;;
50853;SDS011;44154;45.506;-122.806;2022-12-07T10:43:32;11.18;;;10.05;;
50853;SDS011;44154;45.506;-122.806;2022-12-07T10:46:21;10.55;;;9.55;;
50853;SDS011;44154;45.506;-122.806;2022-12-07T10:55:16;7.18;;;6.47;;
50853;SDS011;44154;45.506;-122.806;2022-12-07T10:58:52;7.72;;;6.72;;
50853;SDS011;44154;45.506;-122.806;2022-12-07T11:09:45;7.55;;;6.75;;
50853;SDS011;44154;45.506;-122.806;2022-12-07T11:12:26;7.47;;;6.68;;
50853;SDS011;44154;45.506;-122.806;2022-12-07T11:15:14;9.98;;;9.07;;
50853;SDS011;44154;45.506;-122.806;2022-12-07T11:18:09;9.50;;;8.65;;
50853;SDS011;44154;45.506;-122.806;2022-12-07T11:20:45;7.50;;;6.72;;
50853;SDS011;44154;45.506;-122.806;2022-12-07T11:29:32;7.15;;;6.45;;
50853;SDS011;44154;45.506;-122.806;2022-12-07T11:37:16;7.05;;;6.18;;
50853;SDS011;44154;45.506;-122.806;2022-12-07T11:39:56;7.10;;;6.40;;
50853;SDS011;44154;45.506;-122.806;2022-12-07T11:42:28;6.82;;;6.13;;
50853;SDS011;44154;45.506;-122.806;2022-12-07T11:53:10;7.32;;;6.63;;
50853;SDS011;44154;45.506;-122.806;2022-12-07T11:55:47;6.60;;;6.00;;
50853;SDS011;44154;45.506;-122.806;2022-12-07T11:58:39;6.88;;;6.18;;
50853;SDS011;44154;45.506;-122.806;2022-12-07T12:04:13;7.20;;;6.50;;
50853;SDS011;44154;45.506;-122.806;2022-12-07T12:06:34;6.85;;;6.25;;
50853;SDS011;44154;45.506;-122.806;2022-12-07T12:20:23;7.75;;;6.95;;
50853;SDS011;44154;45.506;-122.806;2022-12-07T12:25:41;6.60;;;6.00;;
50853;SDS011;44154;45.506;-122.806;2022-12-07T12:33:45;6.32;;;5.72;;
50853;SDS011;44154;45.506;-122.806;2022-12-07T12:44:02;6.97;;;6.28;;
50853;SDS011;44154;45.506;-122.806;2022-12-07T12:51:58;7.80;;;7.00;;
50853;SDS011;44154;45.506;-122.806;2022-12-07T12:54:37;7.30;;;6.60;;
50853;SDS011;44154;45.506;-122.806;2022-12-07T13:02:20;5.93;;;5.33;;
50853;SDS011;44154;45.506;-122.806;2022-12-07T13:13:24;5.60;;;5.10;;
50853;SDS011;44154;45.506;-122.806;2022-12-07T13:26:19;4.78;;;4.35;;
50853;SDS011;44154;45.506;-122.806;2022-12-07T13:29:13;4.90;;;4.40;;
50853;SDS011;44154;45.506;-122.806;2022-12-07T13:31:56;5.15;;;4.65;;
50853;SDS011;44154;45.506;-122.806;2022-12-07T13:37:04;6.55;;;5.95;;
50853;SDS011;44154;45.506;-122.806;2022-12-07T13:42:27;5.13;;;4.63;;
50853;SDS011;44154;45.506;-122.806;2022-12-07T13:44:54;4.90;;;4.40;;
50853;SDS011;44154;45.506;-122.806;2022-12-07T13:47:46;5.18;;;4.53;;
50853;SDS011;44154;45.506;-122.806;2022-12-07T13:50:25;5.05;;;4.43;;
50853;SDS011;44154;45.506;-122.806;2022-12-07T13:52:55;4.97;;;4.47;;
50853;SDS011;44154;45.506;-122.806;2022-12-07T13:55:23;4.93;;;4.43;;
50853;SDS011;44154;45.506;-122.806;2022-12-07T13:57:50;5.28;;;4.78;;
50853;SDS011;44154;45.506;-122.806;2022-12-07T14:00:19;4.63;;;4.22;;
50853;SDS011;44154;45.506;-122.806;2022-12-07T14:05:31;4.88;;;4.38;;
50853;SDS011;44154;45.506;-122.806;2022-12-07T14:08:02;4.88;;;4.38;;
50853;SDS011;44154;45.506;-122.806;2022-12-07T14:10:31;5.07;;;4.57;;
50853;SDS011;44154;45.506;-122.806;2022-12-07T14:12:58;5.30;;;4.80;;
50853;SDS011;44154;45.506;-122.806;2022-12-07T14:15:32;5.32;;;4.80;;
50853;SDS011;44154;45.506;-122.806;2022-12-07T14:18:01;5.55;;;4.72;;
50853;SDS011;44154;45.506;-122.806;2022-12-07T14:20:32;4.80;;;4.30;;
50853;SDS011;44154;45.506;-122.806;2022-12-07T14:23:01;4.88;;;4.38;;
50853;SDS011;44154;45.506;-122.806;2022-12-07T14:25:50;7.97;;;7.28;;
50853;SDS011;44154;45.506;-122.806;2022-12-07T14:28:33;7.80;;;7.10;;
50853;SDS011;44154;45.506;-122.806;2022-12-07T14:31:01;6.68;;;6.07;;
50853;SDS011;44154;45.506;-122.806;2022-12-07T14:33:29;5.50;;;5.00;;
50853;SDS011;44154;45.506;-122.806;2022-12-07T14:35:55;5.18;;;4.68;;
50853;SDS011;44154;45.506;-122.806;2022-12-07T14:38:23;5.85;;;4.38;;
50853;SDS011;44154;45.506;-122.806;2022-12-07T14:40:50;5.22;;;4.72;;
50853;SDS011;44154;45.506;-122.806;2022-12-07T14:43:40;5.30;;;4.80;;
50853;SDS011;44154;45.506;-122.806;2022-12-07T14:46:06;6.30;;;4.97;;
50853;SDS011;44154;45.506;-122.806;2022-12-07T14:48:32;5.30;;;4.80;;
50853;SDS011;44154;45.506;-122.806;2022-12-07T14:50:58;6.00;;;5.43;;
50853;SDS011;44154;45.506;-122.806;2022-12-07T14:53:27;9.30;;;8.40;;
50853;SDS011;44154;45.506;-122.806;2022-12-07T14:55:56;7.78;;;7.07;;
50853;SDS011;44154;45.506;-122.806;2022-12-07T14:58:22;6.97;;;6.38;;
50853;SDS011;44154;45.506;-122.806;2022-12-07T15:00:48;7.07;;;6.38;;
50853;SDS011;44154;45.506;-122.806;2022-12-07T15:03:15;5.88;;;5.30;;
50853;SDS011;44154;45.506;-122.806;2022-12-07T15:05:41;5.50;;;4.95;;
50853;SDS011;44154;45.506;-122.806;2022-12-07T15:08:11;5.95;;;5.43;;
50853;SDS011;44154;45.506;-122.806;2022-12-07T15:10:38;4.65;;;4.25;;
50853;SDS011;44154;45.506;-122.806;2022-12-07T15:13:05;5.18;;;4.68;;
50853;SDS011;44154;45.506;-122.806;2022-12-07T15:15:51;4.85;;;4.35;;
50853;SDS011;44154;45.506;-122.806;2022-12-07T15:18:18;4.32;;;3.92;;
50853;SDS011;44154;45.506;-122.806;2022-12-07T15:20:46;3.92;;;3.53;;
50853;SDS011;44154;45.506;-122.806;2022-12-07T15:23:13;5.15;;;3.97;;
50853;SDS011;44154;45.506;-122.806;2022-12-07T15:25:42;4.40;;;3.50;;
50853;SDS011;44154;45.506;-122.806;2022-12-07T15:28:10;4.32;;;3.58;;
50853;SDS011;44154;45.506;-122.806;2022-12-07T15:30:42;6.20;;;4.53;;
50853;SDS011;44154;45.506;-122.806;2022-12-07T15:33:10;5.22;;;3.90;;
50853;SDS011;44154;45.506;-122.806;2022-12-07T15:35:40;5.20;;;4.30;;
50853;SDS011;44154;45.506;-122.806;2022-12-07T15:38:07;7.25;;;4.70;;
50853;SDS011;44154;45.506;-122.806;2022-12-07T15:40:33;6.85;;;4.88;;
50853;SDS011;44154;45.506;-122.806;2022-12-07T15:43:00;6.57;;;5.18;;
50853;SDS011;44154;45.506;-122.806;2022-12-07T15:45:27;7.68;;;5.13;;
50853;SDS011;44154;45.506;-122.806;2022-12-07T15:47:53;5.97;;;5.13;;
50853;SDS011;44154;45.506;-122.806;2022-12-07T15:50:20;5.93;;;5.32;;
50853;SDS011;44154;45.506;-122.806;2022-12-07T15:52:49;5.80;;;4.50;;
50853;SDS011;44154;45.506;-122.806;2022-12-07T15:55:22;5.78;;;4.60;;
50853;SDS011;44154;45.506;-122.806;2022-12-07T15:57:48;5.95;;;4.18;;
50853;SDS011;44154;45.506;-122.806;2022-12-07T16:00:15;5.38;;;4.40;;
50853;SDS011;44154;45.506;-122.806;2022-12-07T16:02:41;5.60;;;4.20;;
50853;SDS011;44154;45.506;-122.806;2022-12-07T16:05:07;6.30;;;4.72;;
50853;SDS011;44154;45.506;-122.806;2022-12-07T16:07:33;6.15;;;4.43;;
50853;SDS011;44154;45.506;-122.806;2022-12-07T16:09:59;7.20;;;4.97;;
50853;SDS011;44154;45.506;-122.806;2022-12-07T16:12:26;6.50;;;4.70;;
50853;SDS011;44154;45.506;-122.806;2022-12-07T16:14:52;6.43;;;5.30;;
50853;SDS011;44154;45.506;-122.806;2022-12-07T16:17:18;6.95;;;5.35;;
50853;SDS011;44154;45.506;-122.806;2022-12-07T16:19:44;7.50;;;6.70;;
50853;SDS011;44154;45.506;-122.806;2022-12-07T16:22:10;6.80;;;6.07;;
50853;SDS011;44154;45.506;-122.806;2022-12-07T16:24:36;5.35;;;4.82;;
50853;SDS011;44154;45.506;-122.806;2022-12-07T16:27:02;5.03;;;4.53;;
50853;SDS011;44154;45.506;-122.806;2022-12-07T16:29:29;4.90;;;4.40;;
50853;SDS011;44154;45.506;-122.806;2022-12-07T16:31:55;5.05;;;4.20;;
50853;SDS011;44154;45.506;-122.806;2022-12-07T16:34:21;4.88;;;4.35;;
50853;SDS011;44154;45.506;-122.806;2022-12-07T16:36:47;5.22;;;4.72;;
50853;SDS011;44154;45.506;-122.806;2022-12-07T16:39:13;5.90;;;4.60;;
50853;SDS011;44154;45.506;-122.806;2022-12-07T16:41:40;5.70;;;4.80;;